createdAt,value
2018-06-02T00:00:44.024Z,1014.92
2018-06-02T00:01:44.090Z,1014.90
2018-06-02T00:02:44.146Z,1014.87
2018-06-02T00:03:44.211Z,1014.87
2018-06-02T00:04:44.278Z,1014.83
2018-06-02T00:05:44.346Z,1014.85
2018-06-02T00:06:44.417Z,1014.81
2018-06-02T00:07:44.473Z,1014.86
2018-06-02T00:08:44.538Z,1014.85
2018-06-02T00:09:44.605Z,1014.86
2018-06-02T00:10:44.675Z,1014.86
2018-06-02T00:11:44.742Z,1014.87
2018-06-02T00:12:44.798Z,1014.89
2018-06-02T00:13:44.866Z,1014.88
2018-06-02T00:14:44.930Z,1014.88
2018-06-02T00:15:45.002Z,1014.86
2018-06-02T00:16:45.071Z,1014.88
2018-06-02T00:17:45.127Z,1014.87
2018-06-02T00:18:45.190Z,1014.87
2018-06-02T00:19:45.266Z,1014.87
2018-06-02T00:20:45.338Z,1014.87
2018-06-02T00:21:45.386Z,1014.89
2018-06-02T00:22:45.455Z,1014.86
2018-06-02T00:23:45.519Z,1014.90
2018-06-02T00:24:45.587Z,1014.92
2018-06-02T00:25:45.655Z,1014.90
2018-06-02T00:26:45.723Z,1014.92
2018-06-02T00:27:45.783Z,1014.91
2018-06-02T00:28:45.847Z,1014.90
2018-06-02T00:29:45.911Z,1014.90
2018-06-02T00:30:45.987Z,1014.92
2018-06-02T00:31:46.052Z,1014.92
2018-06-02T00:32:46.107Z,1014.90
2018-06-02T00:33:46.176Z,1014.88
2018-06-02T00:34:46.239Z,1014.89
2018-06-02T00:35:46.304Z,1014.95
2018-06-02T00:36:46.680Z,1014.95
2018-06-02T00:37:46.435Z,1014.97
2018-06-02T00:38:46.508Z,1014.97
2018-06-02T00:39:46.568Z,1014.97
2018-06-02T00:40:46.635Z,1014.96
2018-06-02T00:41:46.704Z,1014.92
2018-06-02T00:42:46.768Z,1014.97
2018-06-02T00:43:46.828Z,1014.96
2018-06-02T00:44:46.892Z,1014.96
2018-06-02T00:45:46.960Z,1014.95
2018-06-02T00:46:47.032Z,1014.92
2018-06-02T00:47:47.104Z,1014.94
2018-06-02T00:48:47.156Z,1014.92
2018-06-02T00:49:47.220Z,1014.90
2018-06-02T00:50:47.284Z,1014.94
2018-06-02T00:51:47.373Z,1014.96
2018-06-02T00:52:47.412Z,1014.97
2018-06-02T00:53:47.485Z,1014.93
2018-06-02T00:54:47.548Z,1014.90
2018-06-02T00:55:47.609Z,1014.86
2018-06-02T00:56:47.685Z,1014.85
2018-06-02T00:57:47.748Z,1014.88
2018-06-02T00:58:47.809Z,1014.87
2018-06-02T00:59:47.885Z,1014.86
2018-06-02T01:00:47.941Z,1014.85
2018-06-02T01:01:48.020Z,1014.85
2018-06-02T01:02:48.076Z,1014.87
2018-06-02T01:03:48.137Z,1014.89
2018-06-02T01:04:48.201Z,1014.89
2018-06-02T01:05:48.261Z,1014.86
2018-06-02T01:06:48.441Z,1014.86
2018-06-02T01:07:48.397Z,1014.90
2018-06-02T01:08:48.462Z,1014.86
2018-06-02T01:09:48.529Z,1014.81
2018-06-02T01:10:48.593Z,1014.86
2018-06-02T01:11:48.673Z,1014.83
2018-06-02T01:12:48.729Z,1014.82
2018-06-02T01:13:48.789Z,1014.84
2018-06-02T01:14:48.852Z,1014.83
2018-06-02T01:15:48.929Z,1014.83
2018-06-02T01:16:48.998Z,1014.82
2018-06-02T01:17:49.072Z,1014.79
2018-06-02T01:18:49.117Z,1014.83
2018-06-02T01:19:49.181Z,1014.78
2018-06-02T01:20:49.253Z,1014.81
2018-06-02T01:21:49.462Z,1014.82
2018-06-02T01:22:49.378Z,1014.78
2018-06-02T01:23:49.438Z,1014.75
2018-06-02T01:24:49.505Z,1014.75
2018-06-02T01:25:49.574Z,1014.75
2018-06-02T01:26:49.654Z,1014.75
2018-06-02T01:27:49.713Z,1014.73
2018-06-02T01:28:49.770Z,1014.73
2018-06-02T01:29:49.835Z,1014.72
2018-06-02T01:30:49.910Z,1014.73
2018-06-02T01:31:49.970Z,1014.72
2018-06-02T01:32:50.046Z,1014.71
2018-06-02T01:33:50.094Z,1014.67
2018-06-02T01:34:50.166Z,1014.70
2018-06-02T01:35:50.226Z,1014.71
2018-06-02T01:36:50.594Z,1014.70
2018-06-02T01:37:50.358Z,1014.70
2018-06-02T01:38:50.422Z,1014.69
2018-06-02T01:39:50.482Z,1014.71
2018-06-02T01:40:50.555Z,1014.66
2018-06-02T01:41:50.623Z,1014.70
2018-06-02T01:42:50.702Z,1014.66
2018-06-02T01:43:50.755Z,1014.68
2018-06-02T01:44:50.810Z,1014.64
2018-06-02T01:45:50.876Z,1014.60
2018-06-02T01:46:50.950Z,1014.65
2018-06-02T01:47:51.015Z,1014.64
2018-06-02T01:48:51.074Z,1014.63
2018-06-02T01:49:51.139Z,1014.65
2018-06-02T01:50:51.203Z,1014.63
2018-06-02T01:51:51.577Z,1014.64
2018-06-02T01:52:51.339Z,1014.63
2018-06-02T01:53:51.407Z,1014.61
2018-06-02T01:54:51.466Z,1014.61
2018-06-02T01:55:51.531Z,1014.62
2018-06-02T01:56:51.603Z,1014.64
2018-06-02T01:57:51.667Z,1014.66
2018-06-02T01:58:51.734Z,1014.67
2018-06-02T01:59:51.799Z,1014.68
2018-06-02T02:00:51.859Z,1014.68
2018-06-02T02:01:51.931Z,1014.69
2018-06-02T02:02:51.995Z,1014.74
2018-06-02T02:03:52.052Z,1014.69
2018-06-02T02:04:52.119Z,1014.71
2018-06-02T02:05:52.191Z,1014.74
2018-06-02T02:06:52.253Z,1014.71
2018-06-02T02:07:52.339Z,1014.72
2018-06-02T02:08:52.383Z,1014.66
2018-06-02T02:09:52.447Z,1014.61
2018-06-02T02:10:52.511Z,1014.62
2018-06-02T02:11:52.579Z,1014.60
2018-06-02T02:12:52.655Z,1014.60
2018-06-02T02:13:52.719Z,1014.58
2018-06-02T02:14:52.776Z,1014.58
2018-06-02T02:15:52.839Z,1014.58
2018-06-02T02:16:52.912Z,1014.59
2018-06-02T02:17:52.975Z,1014.57
2018-06-02T02:18:53.043Z,1014.61
2018-06-02T02:19:53.099Z,1014.60
2018-06-02T02:20:53.168Z,1014.62
2018-06-02T02:21:53.232Z,1014.61
2018-06-02T02:22:53.332Z,1014.65
2018-06-02T02:23:53.371Z,1014.63
2018-06-02T02:24:53.424Z,1014.63
2018-06-02T02:25:53.508Z,1014.64
2018-06-02T02:26:53.567Z,1014.62
2018-06-02T02:27:53.628Z,1014.62
2018-06-02T02:28:53.704Z,1014.62
2018-06-02T02:29:53.764Z,1014.60
2018-06-02T02:30:53.821Z,1014.59
2018-06-02T02:31:53.884Z,1014.65
2018-06-02T02:32:53.988Z,1014.64
2018-06-02T02:33:54.020Z,1014.67
2018-06-02T02:34:54.080Z,1014.67
2018-06-02T02:35:54.156Z,1014.71
2018-06-02T02:36:54.218Z,1014.70
2018-06-02T02:37:54.616Z,1014.72
2018-06-02T02:38:54.352Z,1014.73
2018-06-02T02:39:54.414Z,1014.73
2018-06-02T02:40:54.476Z,1014.74
2018-06-02T02:41:54.537Z,1014.74
2018-06-02T02:42:54.613Z,1014.72
2018-06-02T02:43:54.790Z,1014.73
2018-06-02T02:44:54.741Z,1014.75
2018-06-02T02:45:54.809Z,1014.72
2018-06-02T02:46:54.870Z,1014.74
2018-06-02T02:47:54.941Z,1014.76
2018-06-02T02:48:55.021Z,1014.79
2018-06-02T02:49:55.101Z,1014.76
2018-06-02T02:50:55.140Z,1014.77
2018-06-02T02:51:55.196Z,1014.77
2018-06-02T02:52:55.257Z,1014.79
2018-06-02T02:53:55.487Z,1014.82
2018-06-02T02:54:55.396Z,1014.77
2018-06-02T02:55:55.453Z,1014.79
2018-06-02T02:56:55.533Z,1014.79
2018-06-02T02:57:55.599Z,1014.77
2018-06-02T02:58:55.690Z,1014.78
2018-06-02T02:59:55.729Z,1014.80
2018-06-02T03:00:55.790Z,1014.77
2018-06-02T03:01:55.849Z,1014.77
2018-06-02T03:02:55.917Z,1014.76
2018-06-02T03:03:56.025Z,1014.76
2018-06-02T03:04:56.215Z,1014.82
2018-06-02T03:05:56.151Z,1014.81
2018-06-02T03:06:56.257Z,1014.80
2018-06-02T03:07:56.277Z,1014.85
2018-06-02T03:08:56.337Z,1014.85
2018-06-02T03:09:56.649Z,1014.87
2018-06-02T03:10:56.446Z,1014.86
2018-06-02T03:11:56.502Z,1014.84
2018-06-02T03:12:56.578Z,1014.83
2018-06-02T03:13:56.634Z,1014.85
2018-06-02T03:14:56.716Z,1014.84
2018-06-02T03:15:56.778Z,1014.83
2018-06-02T03:16:56.842Z,1014.81
2018-06-02T03:17:56.902Z,1014.80
2018-06-02T03:18:56.966Z,1014.81
2018-06-02T03:19:57.040Z,1014.85
2018-06-02T03:20:57.102Z,1014.82
2018-06-02T03:21:57.158Z,1014.83
2018-06-02T03:22:57.226Z,1014.83
2018-06-02T03:23:57.286Z,1014.82
2018-06-02T03:24:57.718Z,1014.77
2018-06-02T03:25:57.418Z,1014.78
2018-06-02T03:26:57.482Z,1014.78
2018-06-02T03:27:57.564Z,1014.78
2018-06-02T03:28:57.625Z,1014.77
2018-06-02T03:29:57.680Z,1014.76
2018-06-02T03:30:57.775Z,1014.78
2018-06-02T03:31:57.810Z,1014.75
2018-06-02T03:32:57.875Z,1014.76
2018-06-02T03:33:57.961Z,1014.75
2018-06-02T03:34:58.011Z,1014.73
2018-06-02T03:35:58.107Z,1014.72
2018-06-02T03:36:58.143Z,1014.67
2018-06-02T03:37:58.212Z,1014.70
2018-06-02T03:38:58.271Z,1014.72
2018-06-02T03:39:58.355Z,1014.72
2018-06-02T03:40:58.430Z,1014.72
2018-06-02T03:41:58.487Z,1014.70
2018-06-02T03:42:58.534Z,1014.72
2018-06-02T03:43:58.610Z,1014.74
2018-06-02T03:44:58.664Z,1014.74
2018-06-02T03:45:58.755Z,1014.71
2018-06-02T03:46:58.810Z,1014.77
2018-06-02T03:47:58.863Z,1014.75
2018-06-02T03:48:58.927Z,1014.77
2018-06-02T03:49:58.999Z,1014.76
2018-06-02T03:50:59.067Z,1014.77
2018-06-02T03:51:59.139Z,1014.79
2018-06-02T03:52:59.190Z,1014.81
2018-06-02T03:53:59.251Z,1014.79
2018-06-02T03:54:59.315Z,1014.81
2018-06-02T03:55:59.543Z,1014.83
2018-06-02T03:56:59.451Z,1014.83
2018-06-02T03:57:59.511Z,1014.81
2018-06-02T03:58:59.583Z,1014.82
2018-06-02T03:59:59.647Z,1014.79
2018-06-02T04:00:59.723Z,1014.81
2018-06-02T04:01:59.800Z,1014.84
2018-06-02T04:02:59.839Z,1014.82
2018-06-02T04:03:59.912Z,1014.83
2018-06-02T04:04:59.984Z,1014.83
2018-06-02T04:06:00.060Z,1014.81
2018-06-02T04:07:00.112Z,1014.84
2018-06-02T04:08:00.172Z,1014.81
2018-06-02T04:09:00.246Z,1014.84
2018-06-02T04:10:00.301Z,1014.83
2018-06-02T04:11:00.528Z,1014.85
2018-06-02T04:12:00.435Z,1014.82
2018-06-02T04:13:00.500Z,1014.83
2018-06-02T04:14:00.564Z,1014.85
2018-06-02T04:15:00.632Z,1014.87
2018-06-02T04:16:00.714Z,1014.89
2018-06-02T04:17:00.772Z,1014.93
2018-06-02T04:18:00.833Z,1014.88
2018-06-02T04:19:00.896Z,1014.89
2018-06-02T04:20:00.960Z,1014.91
2018-06-02T04:21:01.036Z,1014.89
2018-06-02T04:22:01.101Z,1014.90
2018-06-02T04:23:01.157Z,1014.91
2018-06-02T04:24:01.220Z,1014.91
2018-06-02T04:25:01.292Z,1014.95
2018-06-02T04:26:01.544Z,1014.92
2018-06-02T04:27:01.413Z,1014.95
2018-06-02T04:28:01.489Z,1014.93
2018-06-02T04:29:01.552Z,1014.94
2018-06-02T04:30:01.613Z,1014.99
2018-06-02T04:31:01.689Z,1014.97
2018-06-02T04:32:01.753Z,1014.93
2018-06-02T04:33:01.821Z,1014.95
2018-06-02T04:34:01.877Z,1014.98
2018-06-02T04:35:01.949Z,1014.98
2018-06-02T04:36:02.021Z,1015.02
2018-06-02T04:37:02.089Z,1014.98
2018-06-02T04:38:02.141Z,1015.01
2018-06-02T04:39:02.205Z,1015.02
2018-06-02T04:40:02.269Z,1014.98
2018-06-02T04:41:02.359Z,1015.00
2018-06-02T04:42:02.403Z,1015.00
2018-06-02T04:43:02.465Z,1015.01
2018-06-02T04:44:02.533Z,1015.01
2018-06-02T04:45:02.600Z,1015.02
2018-06-02T04:46:02.673Z,1015.04
2018-06-02T04:47:02.742Z,1015.05
2018-06-02T04:48:02.790Z,1015.05
2018-06-02T04:49:02.866Z,1015.03
2018-06-02T04:50:02.926Z,1015.05
2018-06-02T04:51:03.006Z,1015.04
2018-06-02T04:52:03.067Z,1015.07
2018-06-02T04:53:03.130Z,1015.03
2018-06-02T04:54:03.192Z,1015.05
2018-06-02T04:55:03.258Z,1015.03
2018-06-02T04:56:03.327Z,1015.05
2018-06-02T04:57:03.402Z,1015.09
2018-06-02T04:58:03.458Z,1015.08
2018-06-02T04:59:03.518Z,1015.05
2018-06-02T05:00:03.590Z,1015.10
2018-06-02T05:01:03.650Z,1015.14
2018-06-02T05:02:03.741Z,1015.12
2018-06-02T05:03:03.798Z,1015.12
2018-06-02T05:04:03.850Z,1015.15
2018-06-02T05:05:03.998Z,1015.18
2018-06-02T05:06:03.974Z,1015.17
2018-06-02T05:07:04.047Z,1015.16
2018-06-02T05:08:04.118Z,1015.19
2018-06-02T05:09:04.174Z,1015.17
2018-06-02T05:10:04.238Z,1015.20
2018-06-02T05:11:04.303Z,1015.19
2018-06-02T05:12:04.387Z,1015.19
2018-06-02T05:13:04.447Z,1015.18
2018-06-02T05:14:04.508Z,1015.21
2018-06-02T05:15:04.618Z,1015.20
2018-06-02T05:16:04.637Z,1015.19
2018-06-02T05:17:04.716Z,1015.23
2018-06-02T05:18:04.773Z,1015.22
2018-06-02T05:19:04.831Z,1015.24
2018-06-02T05:20:04.900Z,1015.24
2018-06-02T05:21:04.968Z,1015.27
2018-06-02T05:22:05.045Z,1015.28
2018-06-02T05:23:05.104Z,1015.26
2018-06-02T05:24:05.159Z,1015.28
2018-06-02T05:25:05.224Z,1015.29
2018-06-02T05:26:05.289Z,1015.32
2018-06-02T05:27:05.365Z,1015.34
2018-06-02T05:28:05.427Z,1015.36
2018-06-02T05:29:05.500Z,1015.36
2018-06-02T05:30:05.552Z,1015.37
2018-06-02T05:31:05.619Z,1015.32
2018-06-02T05:32:05.692Z,1015.39
2018-06-02T05:33:05.756Z,1015.38
2018-06-02T05:34:05.816Z,1015.38
2018-06-02T05:35:05.880Z,1015.35
2018-06-02T05:36:05.948Z,1015.37
2018-06-02T05:37:06.020Z,1015.39
2018-06-02T05:38:06.096Z,1015.40
2018-06-02T05:39:06.144Z,1015.40
2018-06-02T05:40:06.208Z,1015.39
2018-06-02T05:41:06.277Z,1015.40
2018-06-02T05:42:06.348Z,1015.36
2018-06-02T05:43:06.412Z,1015.39
2018-06-02T05:44:06.516Z,1015.40
2018-06-02T05:45:06.539Z,1015.39
2018-06-02T05:46:06.604Z,1015.40
2018-06-02T05:47:06.676Z,1015.36
2018-06-02T05:48:06.740Z,1015.38
2018-06-02T05:49:06.801Z,1015.38
2018-06-02T05:50:06.865Z,1015.37
2018-06-02T05:51:06.933Z,1015.38
2018-06-02T05:52:07.005Z,1015.37
2018-06-02T05:53:07.068Z,1015.38
2018-06-02T05:54:07.129Z,1015.40
2018-06-02T05:55:07.193Z,1015.39
2018-06-02T05:56:07.256Z,1015.39
2018-06-02T05:57:07.331Z,1015.45
2018-06-02T05:58:07.507Z,1015.42
2018-06-02T05:59:07.457Z,1015.43
2018-06-02T06:00:07.524Z,1015.41
2018-06-02T06:01:07.592Z,1015.39
2018-06-02T06:02:07.653Z,1015.41
2018-06-02T06:03:07.725Z,1015.37
2018-06-02T06:04:07.793Z,1015.37
2018-06-02T06:05:07.852Z,1015.41
2018-06-02T06:06:07.919Z,1015.41
2018-06-02T06:07:07.981Z,1015.43
2018-06-02T06:08:08.053Z,1015.42
2018-06-02T06:09:08.121Z,1015.43
2018-06-02T06:10:08.177Z,1015.44
2018-06-02T06:11:08.245Z,1015.44
2018-06-02T06:12:08.309Z,1015.46
2018-06-02T06:13:08.401Z,1015.46
2018-06-02T06:14:08.441Z,1015.47
2018-06-02T06:15:08.511Z,1015.44
2018-06-02T06:16:08.574Z,1015.43
2018-06-02T06:17:08.643Z,1015.41
2018-06-02T06:18:08.711Z,1015.45
2018-06-02T06:19:08.777Z,1015.46
2018-06-02T06:20:08.842Z,1015.48
2018-06-02T06:21:08.901Z,1015.48
2018-06-02T06:22:08.965Z,1015.49
2018-06-02T06:23:09.042Z,1015.45
2018-06-02T06:24:09.106Z,1015.51
2018-06-02T06:25:09.167Z,1015.54
2018-06-02T06:26:09.230Z,1015.51
2018-06-02T06:27:09.298Z,1015.47
2018-06-02T06:28:09.518Z,1015.53
2018-06-02T06:29:09.430Z,1015.53
2018-06-02T06:30:09.494Z,1015.52
2018-06-02T06:31:09.561Z,1015.57
2018-06-02T06:32:09.628Z,1015.57
2018-06-02T06:33:09.743Z,1015.58
2018-06-02T06:34:09.762Z,1015.59
2018-06-02T06:35:09.822Z,1015.58
2018-06-02T06:36:09.890Z,1015.58
2018-06-02T06:37:09.954Z,1015.58
2018-06-02T06:38:10.027Z,1015.62
2018-06-02T06:39:10.148Z,1015.56
2018-06-02T06:40:10.150Z,1015.62
2018-06-02T06:41:10.219Z,1015.64
2018-06-02T06:42:10.283Z,1015.63
2018-06-02T06:43:10.367Z,1015.65
2018-06-02T06:44:10.431Z,1015.66
2018-06-02T06:45:10.486Z,1015.62
2018-06-02T06:46:10.547Z,1015.63
2018-06-02T06:47:10.619Z,1015.62
2018-06-02T06:48:10.687Z,1015.58
2018-06-02T06:49:10.757Z,1015.54
2018-06-02T06:50:10.811Z,1015.61
2018-06-02T06:51:10.891Z,1015.56
2018-06-02T06:52:10.947Z,1015.54
2018-06-02T06:53:11.019Z,1015.54
2018-06-02T06:54:11.083Z,1015.51
2018-06-02T06:55:11.144Z,1015.44
2018-06-02T06:56:11.215Z,1015.48
2018-06-02T06:57:11.276Z,1015.44
2018-06-02T06:58:11.347Z,1015.44
2018-06-02T06:59:11.416Z,1015.49
2018-06-02T07:00:11.475Z,1015.42
2018-06-02T07:01:11.545Z,1015.47
2018-06-02T07:02:11.608Z,1015.46
2018-06-02T07:03:11.680Z,1015.44
2018-06-02T07:04:11.748Z,1015.48
2018-06-02T07:05:11.807Z,1015.47
2018-06-02T07:06:11.872Z,1015.45
2018-06-02T07:07:11.935Z,1015.51
2018-06-02T07:08:12.012Z,1015.51
2018-06-02T07:09:12.080Z,1015.51
2018-06-02T07:10:12.140Z,1015.57
2018-06-02T07:11:12.204Z,1015.53
2018-06-02T07:12:12.280Z,1015.52
2018-06-02T07:13:12.352Z,1015.54
2018-06-02T07:14:12.410Z,1015.57
2018-06-02T07:15:12.472Z,1015.52
2018-06-02T07:16:12.536Z,1015.56
2018-06-02T07:17:12.604Z,1015.56
2018-06-02T07:18:12.676Z,1015.57
2018-06-02T07:19:12.745Z,1015.60
2018-06-02T07:20:12.804Z,1015.63
2018-06-02T07:21:12.868Z,1015.61
2018-06-02T07:22:12.938Z,1015.59
2018-06-02T07:23:13.009Z,1015.64
2018-06-02T07:24:13.077Z,1015.60
2018-06-02T07:25:13.137Z,1015.61
2018-06-02T07:26:13.201Z,1015.60
2018-06-02T07:27:13.269Z,1015.63
2018-06-02T07:28:13.489Z,1015.64
2018-06-02T07:29:13.405Z,1015.62
2018-06-02T07:30:13.468Z,1015.63
2018-06-02T07:31:13.533Z,1015.66
2018-06-02T07:32:13.601Z,1015.61
2018-06-02T07:33:13.669Z,1015.64
2018-06-02T07:34:13.737Z,1015.66
2018-06-02T07:35:13.801Z,1015.60
2018-06-02T07:36:13.865Z,1015.59
2018-06-02T07:37:13.933Z,1015.60
2018-06-02T07:38:14.005Z,1015.60
2018-06-02T07:39:14.073Z,1015.59
2018-06-02T07:40:14.133Z,1015.63
2018-06-02T07:41:14.198Z,1015.64
2018-06-02T07:42:14.269Z,1015.68
2018-06-02T07:43:14.337Z,1015.71
2018-06-02T07:44:14.430Z,1015.71
2018-06-02T07:45:14.465Z,1015.69
2018-06-02T07:46:14.530Z,1015.74
2018-06-02T07:47:14.597Z,1015.72
2018-06-02T07:48:14.669Z,1015.70
2018-06-02T07:49:14.742Z,1015.68
2018-06-02T07:50:14.798Z,1015.72
2018-06-02T07:51:14.861Z,1015.77
2018-06-02T07:52:14.930Z,1015.77
2018-06-02T07:53:15.010Z,1015.77
2018-06-02T07:54:15.070Z,1015.77
2018-06-02T07:55:15.130Z,1015.73
2018-06-02T07:56:15.201Z,1015.74
2018-06-02T07:57:15.270Z,1015.72
2018-06-02T07:58:15.334Z,1015.72
2018-06-02T07:59:15.417Z,1015.78
2018-06-02T08:00:15.466Z,1015.74
2018-06-02T08:01:15.530Z,1015.78
2018-06-02T08:02:15.598Z,1015.90
2018-06-02T08:03:15.670Z,1015.81
2018-06-02T08:04:15.742Z,1015.80
2018-06-02T08:05:15.806Z,1015.89
2018-06-02T08:06:15.866Z,1015.82
2018-06-02T08:07:15.934Z,1015.80
2018-06-02T08:08:16.003Z,1015.77
2018-06-02T08:09:16.222Z,1015.87
2018-06-02T08:10:16.135Z,1015.86
2018-06-02T08:11:16.203Z,1015.83
2018-06-02T08:12:16.271Z,1015.89
2018-06-02T08:13:16.343Z,1015.85
2018-06-02T08:14:16.411Z,1015.84
2018-06-02T08:15:16.479Z,1015.82
2018-06-02T08:16:16.539Z,1015.80
2018-06-02T08:17:16.606Z,1015.83
2018-06-02T08:18:16.686Z,1015.80
2018-06-02T08:19:16.750Z,1015.81
2018-06-02T08:20:16.827Z,1015.86
2018-06-02T08:21:16.883Z,1015.87
2018-06-02T08:22:16.943Z,1015.84
2018-06-02T08:23:17.011Z,1015.83
2018-06-02T08:24:17.394Z,1015.84
2018-06-02T08:25:17.147Z,1015.84
2018-06-02T08:26:17.220Z,1015.86
2018-06-02T08:27:17.283Z,1015.91
2018-06-02T08:28:17.353Z,1015.90
2018-06-02T08:29:17.423Z,1015.86
2018-06-02T08:30:17.516Z,1015.87
2018-06-02T08:31:17.555Z,1015.87
2018-06-02T08:32:17.620Z,1015.89
2018-06-02T08:33:17.703Z,1015.87
2018-06-02T08:34:17.759Z,1015.86
2018-06-02T08:35:17.830Z,1015.78
2018-06-02T08:36:17.891Z,1015.76
2018-06-02T08:37:17.965Z,1015.76
2018-06-02T08:38:18.024Z,1015.71
2018-06-02T08:39:18.116Z,1015.76
2018-06-02T08:40:18.160Z,1015.75
2018-06-02T08:41:18.227Z,1015.77
2018-06-02T08:42:18.296Z,1015.74
2018-06-02T08:43:18.365Z,1015.81
2018-06-02T08:44:18.435Z,1015.85
2018-06-02T08:45:18.503Z,1015.87
2018-06-02T08:46:18.568Z,1015.88
2018-06-02T08:47:18.631Z,1015.94
2018-06-02T08:48:18.700Z,1015.92
2018-06-02T08:49:18.780Z,1015.90
2018-06-02T08:50:18.843Z,1015.90
2018-06-02T08:51:18.904Z,1015.91
2018-06-02T08:52:18.973Z,1015.90
2018-06-02T08:53:19.040Z,1015.91
2018-06-02T08:54:19.153Z,1015.93
2018-06-02T08:55:19.178Z,1015.89
2018-06-02T08:56:19.244Z,1015.94
2018-06-02T08:57:19.312Z,1015.92
2018-06-02T08:58:19.380Z,1015.93
2018-06-02T08:59:19.457Z,1015.94
2018-06-02T09:00:19.536Z,1015.92
2018-06-02T09:01:19.585Z,1015.94
2018-06-02T09:02:19.652Z,1015.99
2018-06-02T09:03:19.720Z,1016.03
2018-06-02T09:04:19.797Z,1016.01
2018-06-02T09:05:19.872Z,1015.98
2018-06-02T09:06:19.925Z,1015.90
2018-06-02T09:07:20.000Z,1015.98
2018-06-02T09:08:20.061Z,1015.99
2018-06-02T09:09:20.129Z,1015.96
2018-06-02T09:10:20.313Z,1015.97
2018-06-02T09:11:20.267Z,1016.03
2018-06-02T09:12:20.337Z,1015.99
2018-06-02T09:13:20.405Z,1016.06
2018-06-02T09:14:20.469Z,1016.04
2018-06-02T09:15:20.545Z,1016.06
2018-06-02T09:16:20.613Z,1016.01
2018-06-02T09:17:20.677Z,1015.97
2018-06-02T09:18:20.745Z,1016.04
2018-06-02T09:19:20.817Z,1016.03
2018-06-02T09:20:20.885Z,1016.07
2018-06-02T09:21:20.957Z,1016.00
2018-06-02T09:22:21.018Z,1015.99
2018-06-02T09:23:21.085Z,1015.99
2018-06-02T09:24:21.153Z,1016.02
2018-06-02T09:25:21.239Z,1016.06
2018-06-02T09:26:21.289Z,1016.03
2018-06-02T09:27:21.363Z,1016.01
2018-06-02T09:28:21.432Z,1016.01
2018-06-02T09:29:21.498Z,1015.98
2018-06-02T09:30:21.567Z,1015.97
2018-06-02T09:31:21.634Z,1016.01
2018-06-02T09:32:21.698Z,1015.97
2018-06-02T09:33:21.766Z,1015.97
2018-06-02T09:34:21.842Z,1015.95
2018-06-02T09:35:21.910Z,1015.97
2018-06-02T09:36:21.974Z,1015.94
2018-06-02T09:37:22.038Z,1015.96
2018-06-02T09:38:22.106Z,1015.97
2018-06-02T09:39:22.174Z,1016.00
2018-06-02T09:40:22.362Z,1016.03
2018-06-02T09:41:22.310Z,1016.04
2018-06-02T09:42:22.381Z,1016.09
2018-06-02T09:43:22.449Z,1016.13
2018-06-02T09:44:22.514Z,1016.13
2018-06-02T09:45:22.587Z,1016.14
2018-06-02T09:46:22.654Z,1016.10
2018-06-02T09:47:22.718Z,1016.14
2018-06-02T09:48:22.786Z,1016.12
2018-06-02T09:49:22.854Z,1016.11
2018-06-02T09:50:22.926Z,1016.10
2018-06-02T09:51:22.995Z,1016.11
2018-06-02T09:52:23.059Z,1016.11
2018-06-02T09:53:23.127Z,1016.08
2018-06-02T09:54:23.195Z,1016.10
2018-06-02T09:55:23.367Z,1016.09
2018-06-02T09:56:23.336Z,1016.12
2018-06-02T09:57:23.398Z,1016.11
2018-06-02T09:58:23.467Z,1016.18
2018-06-02T09:59:23.550Z,1016.13
2018-06-02T10:00:23.607Z,1016.16
2018-06-02T10:01:23.679Z,1016.17
2018-06-02T10:02:23.739Z,1016.13
2018-06-02T10:03:23.807Z,1016.15
2018-06-02T10:04:23.883Z,1016.13
2018-06-02T10:05:23.951Z,1016.03
2018-06-02T10:06:24.019Z,1016.00
2018-06-02T10:07:24.089Z,1016.03
2018-06-02T10:08:24.152Z,1016.00
2018-06-02T10:09:24.228Z,1016.02
2018-06-02T10:10:24.304Z,1016.01
2018-06-02T10:11:24.358Z,1016.03
2018-06-02T10:12:24.432Z,1016.03
2018-06-02T10:13:24.492Z,1016.05
2018-06-02T10:14:24.560Z,1016.08
2018-06-02T10:15:24.635Z,1016.11
2018-06-02T10:16:24.704Z,1016.15
2018-06-02T10:17:24.768Z,1016.16
2018-06-02T10:18:24.836Z,1016.17
2018-06-02T10:19:24.904Z,1016.21
2018-06-02T10:20:24.980Z,1016.27
2018-06-02T10:21:25.052Z,1016.18
2018-06-02T10:22:25.108Z,1016.13
2018-06-02T10:23:25.180Z,1016.09
2018-06-02T10:24:25.252Z,1016.11
2018-06-02T10:25:25.316Z,1016.17
2018-06-02T10:26:25.540Z,1016.15
2018-06-02T10:27:25.456Z,1016.18
2018-06-02T10:28:25.528Z,1016.17
2018-06-02T10:29:25.597Z,1016.17
2018-06-02T10:30:25.661Z,1016.19
2018-06-02T10:31:25.768Z,1016.19
2018-06-02T10:32:25.888Z,1016.19
2018-06-02T10:33:25.865Z,1016.16
2018-06-02T10:34:25.941Z,1016.17
2018-06-02T10:35:26.075Z,1016.19
2018-06-02T10:36:26.077Z,1016.20
2018-06-02T10:37:26.297Z,1016.25
2018-06-02T10:38:26.217Z,1016.22
2018-06-02T10:39:26.289Z,1016.16
2018-06-02T10:40:26.357Z,1016.13
2018-06-02T10:41:26.433Z,1016.17
2018-06-02T10:42:26.501Z,1016.13
2018-06-02T10:43:26.577Z,1016.10
2018-06-02T10:44:26.678Z,1016.10
2018-06-02T10:45:26.705Z,1016.09
2018-06-02T10:46:26.773Z,1016.05
2018-06-02T10:47:26.865Z,1016.09
2018-06-02T10:48:26.920Z,1016.10
2018-06-02T10:49:26.989Z,1016.11
2018-06-02T10:50:27.054Z,1016.15
2018-06-02T10:51:27.121Z,1016.14
2018-06-02T10:52:27.386Z,1016.14
2018-06-02T10:53:27.261Z,1016.11
2018-06-02T10:54:27.329Z,1016.17
2018-06-02T10:55:27.401Z,1016.13
2018-06-02T10:56:27.473Z,1016.15
2018-06-02T10:57:27.545Z,1016.13
2018-06-02T10:58:27.649Z,1016.13
2018-06-02T10:59:27.678Z,1016.16
2018-06-02T11:00:27.758Z,1016.15
2018-06-02T11:01:27.817Z,1016.08
2018-06-02T11:02:27.893Z,1016.09
2018-06-02T11:03:27.970Z,1016.06
2018-06-02T11:04:28.022Z,1016.06
2018-06-02T11:05:28.098Z,1016.15
2018-06-02T11:06:28.177Z,1016.17
2018-06-02T11:07:28.390Z,1016.16
2018-06-02T11:08:28.308Z,1016.14
2018-06-02T11:09:28.378Z,1016.14
2018-06-02T11:10:28.438Z,1016.06
2018-06-02T11:11:28.514Z,1015.99
2018-06-02T11:12:28.594Z,1016.00
2018-06-02T11:13:28.655Z,1016.02
2018-06-02T11:14:28.727Z,1016.04
2018-06-02T11:15:28.799Z,1016.09
2018-06-02T11:16:28.862Z,1016.08
2018-06-02T11:17:28.959Z,1016.09
2018-06-02T11:18:29.019Z,1016.08
2018-06-02T11:19:29.109Z,1016.04
2018-06-02T11:20:29.148Z,1016.00
2018-06-02T11:21:29.211Z,1015.97
2018-06-02T11:22:29.303Z,1015.96
2018-06-02T11:23:29.355Z,1015.96
2018-06-02T11:24:29.437Z,1015.94
2018-06-02T11:25:29.491Z,1015.96
2018-06-02T11:26:29.563Z,1015.95
2018-06-02T11:27:29.639Z,1015.96
2018-06-02T11:28:29.707Z,1015.95
2018-06-02T11:29:29.771Z,1015.93
2018-06-02T11:30:29.843Z,1015.95
2018-06-02T11:31:29.911Z,1015.88
2018-06-02T11:32:29.999Z,1015.91
2018-06-02T11:33:30.059Z,1015.89
2018-06-02T11:34:30.123Z,1015.93
2018-06-02T11:35:30.199Z,1015.85
2018-06-02T11:36:30.268Z,1015.86
2018-06-02T11:37:30.351Z,1015.80
2018-06-02T11:38:30.407Z,1015.82
2018-06-02T11:39:30.473Z,1015.84
2018-06-02T11:40:30.543Z,1015.81
2018-06-02T11:41:30.615Z,1015.85
2018-06-02T11:42:30.691Z,1015.84
2018-06-02T11:43:30.763Z,1015.84
2018-06-02T11:44:30.823Z,1015.94
2018-06-02T11:45:30.899Z,1015.93
2018-06-02T11:46:30.964Z,1015.95
2018-06-02T11:47:31.040Z,1015.94
2018-06-02T11:48:31.120Z,1015.94
2018-06-02T11:49:31.173Z,1015.94
2018-06-02T11:50:31.248Z,1015.96
2018-06-02T11:51:31.311Z,1016.01
2018-06-02T11:52:31.403Z,1016.00
2018-06-02T11:53:31.458Z,1016.02
2018-06-02T11:54:31.524Z,1016.04
2018-06-02T11:55:31.592Z,1016.02
2018-06-02T11:56:31.660Z,1016.01
2018-06-02T11:57:31.739Z,1016.02
2018-06-02T11:58:31.810Z,1015.97
2018-06-02T11:59:31.872Z,1015.92
2018-06-02T12:00:31.940Z,1015.90
2018-06-02T12:01:32.012Z,1015.88
2018-06-02T12:02:32.188Z,1015.91
2018-06-02T12:03:32.153Z,1015.96
2018-06-02T12:04:32.220Z,1015.95
2018-06-02T12:05:32.293Z,1015.93
2018-06-02T12:06:32.363Z,1015.93